createdAt,value
2023-04-30T00:00:20.275Z,79.56
2023-04-30T00:02:04.765Z,79.67
2023-04-30T00:03:38.315Z,79.88
2023-04-30T00:05:21.204Z,79.40
2023-04-30T00:06:51.060Z,79.61
2023-04-30T00:08:27.214Z,79.93
2023-04-30T00:09:51.590Z,80.13
2023-04-30T00:11:32.720Z,79.87
2023-04-30T00:13:07.257Z,80.08
2023-04-30T00:14:37.179Z,80.11
2023-04-30T00:16:00.826Z,80.53
2023-04-30T00:17:22.378Z,80.29
2023-04-30T00:18:47.311Z,80.36
2023-04-30T00:20:09.025Z,80.54
2023-04-30T00:21:31.060Z,80.66
2023-04-30T00:23:02.655Z,80.72
2023-04-30T00:24:24.335Z,80.71
2023-04-30T00:25:48.683Z,80.66
2023-04-30T00:27:10.239Z,80.15
2023-04-30T00:28:32.162Z,80.35
2023-04-30T00:29:56.798Z,80.67
2023-04-30T00:31:20.860Z,80.80
2023-04-30T00:32:50.232Z,80.64
2023-04-30T00:34:14.395Z,80.91
2023-04-30T00:35:41.870Z,80.28
2023-04-30T00:37:03.707Z,80.20
2023-04-30T00:38:25.041Z,80.49
2023-04-30T00:39:47.177Z,80.31
2023-04-30T00:41:10.695Z,80.50
2023-04-30T00:42:32.537Z,80.37
2023-04-30T00:43:54.439Z,80.62
2023-04-30T00:45:23.528Z,80.65
2023-04-30T00:46:47.802Z,79.63
2023-04-30T00:48:12.371Z,80.06
2023-04-30T00:49:34.263Z,79.96
2023-04-30T00:50:57.926Z,80.01
2023-04-30T00:52:21.895Z,80.25
2023-04-30T00:53:44.268Z,80.31
2023-04-30T00:55:05.502Z,80.23
2023-04-30T00:56:27.421Z,79.94
2023-04-30T00:57:49.252Z,80.07
2023-04-30T00:59:13.136Z,80.11
2023-04-30T01:00:47.124Z,80.51
2023-04-30T01:02:20.738Z,79.96
2023-04-30T01:03:57.021Z,80.13
2023-04-30T01:05:22.877Z,80.46
2023-04-30T01:06:47.474Z,80.35
2023-04-30T01:08:23.507Z,80.45
2023-04-30T01:09:57.271Z,80.36
2023-04-30T01:11:26.090Z,80.20
2023-04-30T01:12:57.728Z,79.71
2023-04-30T01:14:21.427Z,79.59
2023-04-30T01:15:45.673Z,79.61
2023-04-30T01:17:07.285Z,79.43
2023-04-30T01:18:30.126Z,79.86
2023-04-30T01:20:04.175Z,80.22
2023-04-30T01:21:30.720Z,80.44
2023-04-30T01:22:52.619Z,80.76
2023-04-30T01:24:13.840Z,80.72
2023-04-30T01:25:36.519Z,80.87
2023-04-30T01:27:07.716Z,81.04
2023-04-30T01:28:32.035Z,81.05
2023-04-30T01:29:56.235Z,80.80
2023-04-30T01:31:20.315Z,80.90
2023-04-30T01:32:42.591Z,81.16
2023-04-30T01:34:06.524Z,80.87
2023-04-30T01:35:30.738Z,80.82
2023-04-30T01:37:04.326Z,80.76
2023-04-30T01:38:26.332Z,80.79
2023-04-30T01:40:07.217Z,80.56
2023-04-30T01:41:43.852Z,80.55
2023-04-30T01:43:05.297Z,80.63
2023-04-30T01:44:26.952Z,80.63
2023-04-30T01:45:51.349Z,80.77
2023-04-30T01:47:24.256Z,80.35
2023-04-30T01:48:46.834Z,80.46
2023-04-30T01:50:12.884Z,80.13
2023-04-30T01:51:44.045Z,80.12
2023-04-30T01:53:17.638Z,80.00
2023-04-30T01:54:40.128Z,79.72
2023-04-30T01:56:01.769Z,79.91
2023-04-30T01:57:25.839Z,79.77
2023-04-30T01:58:47.652Z,79.37
2023-04-30T02:00:11.764Z,79.16
2023-04-30T02:01:39.119Z,79.11
2023-04-30T02:03:10.095Z,79.21
2023-04-30T02:04:39.849Z,79.09
2023-04-30T02:06:11.169Z,78.87
2023-04-30T02:07:38.020Z,78.90
2023-04-30T02:09:14.838Z,79.11
2023-04-30T02:10:44.022Z,78.95
2023-04-30T02:12:07.914Z,78.97
2023-04-30T02:13:29.907Z,79.11
2023-04-30T02:14:53.863Z,79.37
2023-04-30T02:16:15.458Z,79.24
2023-04-30T02:17:40.544Z,79.15
2023-04-30T02:19:02.297Z,79.25
2023-04-30T02:20:26.383Z,79.52
2023-04-30T02:22:00.119Z,79.13
2023-04-30T02:23:21.505Z,79.32
2023-04-30T02:24:45.638Z,79.35
2023-04-30T02:26:18.973Z,79.26
2023-04-30T02:27:41.356Z,79.29
2023-04-30T02:29:04.317Z,79.36
2023-04-30T02:30:37.313Z,79.50
2023-04-30T02:31:59.114Z,79.48
2023-04-30T02:33:25.257Z,79.63
2023-04-30T02:34:55.358Z,79.44
2023-04-30T02:36:17.122Z,79.62
2023-04-30T02:37:48.704Z,79.66
2023-04-30T02:39:12.182Z,79.51
2023-04-30T02:40:38.910Z,79.23
2023-04-30T02:42:12.287Z,79.59
2023-04-30T02:43:44.069Z,79.47
2023-04-30T02:45:07.618Z,79.33
2023-04-30T02:46:31.821Z,79.04
2023-04-30T02:48:02.622Z,79.24
2023-04-30T02:49:31.706Z,79.09
2023-04-30T02:51:05.187Z,79.29
2023-04-30T02:52:26.939Z,79.25
2023-04-30T02:54:00.425Z,79.41
2023-04-30T02:55:34.038Z,79.34
2023-04-30T02:56:55.795Z,79.14
2023-04-30T02:58:17.367Z,78.97
2023-04-30T02:59:53.483Z,78.96
2023-04-30T03:01:17.600Z,78.59
2023-04-30T03:02:42.958Z,78.63
2023-04-30T03:04:04.976Z,78.41
2023-04-30T03:05:34.450Z,78.64
2023-04-30T03:07:07.992Z,78.98
2023-04-30T03:08:29.846Z,78.59
2023-04-30T03:09:51.658Z,78.53
2023-04-30T03:11:24.656Z,78.33
2023-04-30T03:12:54.158Z,78.42
2023-04-30T03:14:15.644Z,78.33
2023-04-30T03:15:49.641Z,78.57
2023-04-30T03:17:11.734Z,78.00
2023-04-30T03:18:33.527Z,77.77
2023-04-30T03:19:55.425Z,77.68
2023-04-30T03:21:28.788Z,77.72
2023-04-30T03:23:02.662Z,77.72
2023-04-30T03:24:25.201Z,77.60
2023-04-30T03:25:47.716Z,77.72
2023-04-30T03:27:16.848Z,77.47
2023-04-30T03:28:39.309Z,77.40
2023-04-30T03:30:00.727Z,77.63
2023-04-30T03:31:24.726Z,77.13
2023-04-30T03:32:46.669Z,77.05
2023-04-30T03:34:08.136Z,77.19
2023-04-30T03:35:49.100Z,77.24
2023-04-30T03:37:12.739Z,77.09
2023-04-30T03:38:37.094Z,76.98
2023-04-30T03:40:00.725Z,76.53
2023-04-30T03:41:42.337Z,76.75
2023-04-30T03:43:03.652Z,76.58
2023-04-30T03:44:27.406Z,76.61
2023-04-30T03:46:09.131Z,76.35
2023-04-30T03:47:31.104Z,76.30
2023-04-30T03:48:55.169Z,76.25
2023-04-30T03:50:19.543Z,76.59
2023-04-30T03:51:49.150Z,76.75
2023-04-30T03:53:24.523Z,76.73
2023-04-30T03:54:53.718Z,76.31
2023-04-30T03:56:22.974Z,76.40
2023-04-30T03:57:54.887Z,76.43
2023-04-30T03:59:20.602Z,76.38
2023-04-30T04:00:50.190Z,76.35
2023-04-30T04:02:12.041Z,76.49
2023-04-30T04:03:46.278Z,76.65
2023-04-30T04:05:10.750Z,76.40
2023-04-30T04:06:47.724Z,76.17
2023-04-30T04:08:09.344Z,76.02
2023-04-30T04:09:33.353Z,76.25
2023-04-30T04:10:58.421Z,76.16
2023-04-30T04:12:19.831Z,76.20
2023-04-30T04:13:49.249Z,76.04
2023-04-30T04:15:24.981Z,76.03
2023-04-30T04:16:47.401Z,75.81
2023-04-30T04:18:20.378Z,75.26
2023-04-30T04:19:44.957Z,75.54
2023-04-30T04:21:08.606Z,75.53
2023-04-30T04:22:44.748Z,75.13
2023-04-30T04:24:08.602Z,75.13
2023-04-30T04:25:30.804Z,74.96
2023-04-30T04:26:59.956Z,74.93
2023-04-30T04:28:28.732Z,75.15
2023-04-30T04:29:58.350Z,74.81
2023-04-30T04:31:27.533Z,74.52
2023-04-30T04:33:00.214Z,74.89
2023-04-30T04:34:23.804Z,74.50
2023-04-30T04:36:05.415Z,74.12
2023-04-30T04:37:39.061Z,74.35
2023-04-30T04:39:23.956Z,73.82
2023-04-30T04:40:48.203Z,74.34
2023-04-30T04:42:19.894Z,73.99
2023-04-30T04:43:58.218Z,73.97
2023-04-30T04:45:21.642Z,74.13
2023-04-30T04:46:46.431Z,74.09
2023-04-30T04:48:10.511Z,73.95
2023-04-30T04:49:39.813Z,73.64
2023-04-30T04:51:12.708Z,74.04
2023-04-30T04:52:34.922Z,73.89
2023-04-30T04:53:56.736Z,73.08
2023-04-30T04:55:19.131Z,73.28
2023-04-30T04:56:46.532Z,73.22
2023-04-30T04:58:09.935Z,73.43
2023-04-30T04:59:34.197Z,73.37
2023-04-30T05:00:57.421Z,73.22
2023-04-30T05:02:23.628Z,73.28
2023-04-30T05:03:56.570Z,72.70
2023-04-30T05:05:25.545Z,72.45
2023-04-30T05:06:47.718Z,72.22
2023-04-30T05:08:12.001Z,72.21
2023-04-30T05:09:34.010Z,72.46
2023-04-30T05:11:05.864Z,72.11
2023-04-30T05:12:27.711Z,72.15
2023-04-30T05:13:52.093Z,72.01
2023-04-30T05:15:21.363Z,72.45
2023-04-30T05:16:50.546Z,72.06
2023-04-30T05:18:14.948Z,72.32
2023-04-30T05:19:37.390Z,71.81
2023-04-30T05:21:10.748Z,71.78
2023-04-30T05:22:35.058Z,71.44
2023-04-30T05:24:04.612Z,71.38
2023-04-30T05:25:28.641Z,71.10
2023-04-30T05:26:50.656Z,71.38
2023-04-30T05:28:15.232Z,71.31
2023-04-30T05:29:37.167Z,71.56
2023-04-30T05:31:21.780Z,71.38
2023-04-30T05:32:51.977Z,71.17
2023-04-30T05:34:25.123Z,70.90
2023-04-30T05:35:47.280Z,70.07
2023-04-30T05:37:23.648Z,69.88
2023-04-30T05:39:05.627Z,69.92
2023-04-30T05:40:46.647Z,69.53
2023-04-30T05:42:08.397Z,69.74
2023-04-30T05:43:32.652Z,69.21
2023-04-30T05:45:01.604Z,69.07
2023-04-30T05:46:31.019Z,68.47
2023-04-30T05:48:02.695Z,68.44
2023-04-30T05:49:33.676Z,68.68
2023-04-30T05:50:56.804Z,68.97
2023-04-30T05:52:30.133Z,68.42
2023-04-30T05:53:51.794Z,67.56
2023-04-30T05:55:13.006Z,67.77
2023-04-30T05:56:34.966Z,68.06
2023-04-30T05:57:56.811Z,68.17
2023-04-30T05:59:25.660Z,67.51
2023-04-30T06:01:18.928Z,67.16
2023-04-30T06:02:43.475Z,66.79
2023-04-30T06:04:12.412Z,66.39
2023-04-30T06:05:42.264Z,66.30
2023-04-30T06:07:03.562Z,66.13
2023-04-30T06:08:44.612Z,66.14
2023-04-30T06:10:09.343Z,65.04
2023-04-30T06:11:40.411Z,65.25
2023-04-30T06:13:05.721Z,64.49
2023-04-30T06:14:35.076Z,64.82
2023-04-30T06:15:56.780Z,65.01
2023-04-30T06:17:20.789Z,64.59
2023-04-30T06:18:43.373Z,64.83
2023-04-30T06:20:28.203Z,64.67
2023-04-30T06:21:52.649Z,65.06
2023-04-30T06:23:14.170Z,64.77
2023-04-30T06:24:38.307Z,64.25
2023-04-30T06:26:14.913Z,63.20
2023-04-30T06:27:37.085Z,63.24
2023-04-30T06:29:05.991Z,62.71
2023-04-30T06:30:28.155Z,62.91
2023-04-30T06:32:04.320Z,63.71
2023-04-30T06:33:26.798Z,61.86
2023-04-30T06:34:48.451Z,61.31
2023-04-30T06:36:10.041Z,61.59
2023-04-30T06:37:38.144Z,61.07
2023-04-30T06:39:11.687Z,61.37
2023-04-30T06:40:39.053Z,61.38
2023-04-30T06:42:01.038Z,61.59
2023-04-30T06:43:42.364Z,60.43
2023-04-30T06:45:03.893Z,59.80
2023-04-30T06:46:27.825Z,60.08
2023-04-30T06:48:03.676Z,60.32
2023-04-30T06:49:32.511Z,59.21
2023-04-30T06:51:05.919Z,59.22
2023-04-30T06:52:27.882Z,59.16
2023-04-30T06:54:00.916Z,58.51
2023-04-30T06:55:24.729Z,57.82
2023-04-30T06:56:57.918Z,57.76
2023-04-30T06:58:33.778Z,58.17
2023-04-30T07:00:08.332Z,57.61
2023-04-30T07:01:29.994Z,57.55
2023-04-30T07:02:56.345Z,57.52
2023-04-30T07:04:25.380Z,57.39
2023-04-30T07:05:47.485Z,57.23
2023-04-30T07:07:22.545Z,57.59
2023-04-30T07:08:47.096Z,56.55
2023-04-30T07:10:27.615Z,56.90
2023-04-30T07:11:51.832Z,57.04
2023-04-30T07:13:13.461Z,56.72
2023-04-30T07:14:47.094Z,56.84
2023-04-30T07:16:36.171Z,57.03
2023-04-30T07:18:05.403Z,57.05
2023-04-30T07:19:41.032Z,56.41
2023-04-30T07:21:02.408Z,56.60
2023-04-30T07:22:24.108Z,56.44
2023-04-30T07:23:57.723Z,55.78
2023-04-30T07:25:33.388Z,55.41
2023-04-30T07:27:07.422Z,55.57
2023-04-30T07:28:40.872Z,54.63
2023-04-30T07:30:13.919Z,54.54
2023-04-30T07:31:47.705Z,54.56
2023-04-30T07:33:11.589Z,54.38
2023-04-30T07:34:56.880Z,54.19
2023-04-30T07:36:23.146Z,53.54
2023-04-30T07:37:47.899Z,53.80
2023-04-30T07:39:21.206Z,53.40
2023-04-30T07:41:02.249Z,53.74
2023-04-30T07:42:33.668Z,53.24
2023-04-30T07:44:18.752Z,52.80
2023-04-30T07:45:54.893Z,53.28
2023-04-30T07:47:20.812Z,52.95
2023-04-30T07:48:54.487Z,52.95
2023-04-30T07:50:35.171Z,52.11
2023-04-30T07:52:15.736Z,50.92
2023-04-30T07:53:49.578Z,50.41
2023-04-30T07:55:11.416Z,51.39
2023-04-30T07:56:42.890Z,51.68
2023-04-30T07:58:06.569Z,51.91
2023-04-30T07:59:50.393Z,52.15
2023-04-30T08:01:23.640Z,50.84
2023-04-30T08:03:00.397Z,50.40
2023-04-30T08:04:22.389Z,51.37
2023-04-30T08:05:56.220Z,51.10
2023-04-30T08:07:25.459Z,51.25
2023-04-30T08:08:59.049Z,51.47
2023-04-30T08:10:44.036Z,51.61
2023-04-30T08:12:05.617Z,50.47
2023-04-30T08:13:39.184Z,49.12
2023-04-30T08:15:33.094Z,49.56
2023-04-30T08:17:18.023Z,48.67
2023-04-30T08:18:44.933Z,48.26
2023-04-30T08:22:14.419Z,47.79
2023-04-30T08:23:43.446Z,48.81
2023-04-30T08:25:07.462Z,48.37
2023-04-30T08:26:31.420Z,48.59
2023-04-30T08:27:56.534Z,49.25
2023-04-30T08:29:30.011Z,48.01
2023-04-30T08:31:05.699Z,47.41
2023-04-30T08:32:46.969Z,47.92
2023-04-30T08:34:08.563Z,47.38
2023-04-30T08:35:32.506Z,48.00
2023-04-30T08:36:57.473Z,47.30
2023-04-30T08:38:31.644Z,47.20
2023-04-30T08:40:19.107Z,48.05
2023-04-30T08:41:55.838Z,48.37
2023-04-30T08:43:17.429Z,47.96
2023-04-30T08:44:47.077Z,47.51
2023-04-30T08:46:32.518Z,47.94
2023-04-30T08:48:10.793Z,47.49
2023-04-30T08:49:51.701Z,46.27
2023-04-30T08:51:15.511Z,46.47
2023-04-30T08:52:40.090Z,46.64
2023-04-30T08:54:16.441Z,46.39
2023-04-30T08:55:38.692Z,45.55
2023-04-30T08:57:12.117Z,45.10
2023-04-30T08:58:45.732Z,45.99
2023-04-30T09:00:30.662Z,45.80
2023-04-30T09:02:07.386Z,46.43
2023-04-30T09:03:47.434Z,46.29
2023-04-30T09:05:24.217Z,44.84
2023-04-30T09:07:09.694Z,44.65
2023-04-30T09:08:59.621Z,43.39
2023-04-30T09:10:53.592Z,42.56
2023-04-30T09:12:26.729Z,42.58
2023-04-30T09:14:13.277Z,42.65
2023-04-30T09:15:47.661Z,43.74
2023-04-30T09:17:28.159Z,43.83
2023-04-30T09:19:08.697Z,43.33
2023-04-30T09:20:32.895Z,42.43
2023-04-30T09:22:17.725Z,42.24
2023-04-30T09:23:51.446Z,41.59
2023-04-30T09:25:13.211Z,42.67
2023-04-30T09:26:37.396Z,41.31
2023-04-30T09:28:06.257Z,40.39
2023-04-30T09:29:37.758Z,40.68
2023-04-30T09:31:11.260Z,40.76
2023-04-30T09:32:35.524Z,40.52
2023-04-30T09:34:05.001Z,40.67
2023-04-30T09:35:29.325Z,40.03
2023-04-30T09:37:07.374Z,40.37
2023-04-30T09:38:43.259Z,38.89
2023-04-30T09:40:04.744Z,38.31
2023-04-30T09:41:28.764Z,37.27
2023-04-30T09:43:05.858Z,37.71
2023-04-30T09:44:40.232Z,38.20
2023-04-30T09:46:11.965Z,38.44
2023-04-30T09:47:48.017Z,38.87
2023-04-30T09:49:28.321Z,38.82
2023-04-30T09:50:59.795Z,36.54
2023-04-30T09:52:21.193Z,37.45
2023-04-30T09:53:57.446Z,38.41
2023-04-30T09:55:24.004Z,38.04
2023-04-30T09:56:46.350Z,37.64
2023-04-30T09:58:07.935Z,37.11
2023-04-30T09:59:44.542Z,37.35
2023-04-30T10:01:18.503Z,36.49
2023-04-30T10:02:42.977Z,35.89
2023-04-30T10:04:04.654Z,36.58
2023-04-30T10:05:28.628Z,36.42
2023-04-30T10:06:53.000Z,36.40
2023-04-30T10:08:14.245Z,36.61
2023-04-30T10:09:36.837Z,37.57
2023-04-30T10:10:58.379Z,37.70
2023-04-30T10:12:20.394Z,37.70
2023-04-30T10:13:42.443Z,37.75
2023-04-30T10:15:06.567Z,38.27
2023-04-30T10:16:47.344Z,38.55
2023-04-30T10:18:16.424Z,38.74
2023-04-30T10:19:47.725Z,38.98
2023-04-30T10:21:12.041Z,39.93
2023-04-30T10:22:38.556Z,38.82
2023-04-30T10:24:02.572Z,37.72
2023-04-30T10:25:53.007Z,37.67
2023-04-30T10:27:33.337Z,36.17
2023-04-30T10:28:59.009Z,36.60
2023-04-30T10:30:22.956Z,36.21
2023-04-30T10:31:59.148Z,36.55
2023-04-30T10:33:30.301Z,37.07
2023-04-30T10:35:06.246Z,37.00
2023-04-30T10:36:47.191Z,36.47
2023-04-30T10:38:11.063Z,36.23
2023-04-30T10:39:35.096Z,36.18
2023-04-30T10:41:10.750Z,36.24
2023-04-30T10:42:32.750Z,36.50
2023-04-30T10:43:54.674Z,36.19
2023-04-30T10:45:20.923Z,36.29
2023-04-30T10:46:43.367Z,35.83
2023-04-30T10:48:07.426Z,35.47
2023-04-30T10:49:31.738Z,33.86
2023-04-30T10:51:05.552Z,32.87
2023-04-30T10:52:39.206Z,32.97
2023-04-30T10:54:01.002Z,32.12
2023-04-30T10:55:27.823Z,31.62
2023-04-30T10:56:49.676Z,32.30
2023-04-30T10:58:15.855Z,32.37
2023-04-30T10:59:57.348Z,31.94
2023-04-30T11:01:19.054Z,32.54
2023-04-30T11:02:49.488Z,32.54
2023-04-30T11:04:11.014Z,32.18
2023-04-30T11:05:32.886Z,31.21
2023-04-30T11:06:54.545Z,31.94
2023-04-30T11:08:23.644Z,32.48
2023-04-30T11:09:57.832Z,32.23
2023-04-30T11:11:22.122Z,32.50
2023-04-30T11:12:44.446Z,33.19
2023-04-30T11:14:06.004Z,32.97
2023-04-30T11:15:27.947Z,32.38
2023-04-30T11:16:52.427Z,32.21
2023-04-30T11:18:16.337Z,33.33
2023-04-30T11:19:38.567Z,33.40
2023-04-30T11:21:09.541Z,33.07
2023-04-30T11:22:35.888Z,32.32
2023-04-30T11:23:57.726Z,31.94
2023-04-30T11:25:19.155Z,32.04
2023-04-30T11:26:41.423Z,32.16
2023-04-30T11:28:03.128Z,33.27
2023-04-30T11:29:24.558Z,33.02
2023-04-30T11:30:46.397Z,32.52
2023-04-30T11:32:07.995Z,31.96
2023-04-30T11:33:30.086Z,31.65
2023-04-30T11:34:51.910Z,31.75
2023-04-30T11:36:13.407Z,31.05
2023-04-30T11:37:35.106Z,30.02
2023-04-30T11:38:57.134Z,30.28
2023-04-30T11:40:30.666Z,31.25
2023-04-30T11:41:55.040Z,31.30
2023-04-30T11:43:16.389Z,31.83
2023-04-30T11:44:38.767Z,31.45
2023-04-30T11:46:09.726Z,31.87
2023-04-30T11:47:39.406Z,31.24
2023-04-30T11:49:00.917Z,31.24
2023-04-30T11:50:29.987Z,31.25
2023-04-30T11:51:54.853Z,31.50
2023-04-30T11:53:28.118Z,31.19
2023-04-30T11:55:01.824Z,31.54
2023-04-30T11:56:33.141Z,30.84
2023-04-30T11:58:05.876Z,30.74
2023-04-30T11:59:27.445Z,31.68
2023-04-30T12:00:52.104Z,30.94
2023-04-30T12:02:25.693Z,30.18
2023-04-30T12:03:50.579Z,29.97
2023-04-30T12:05:17.359Z,30.22
2023-04-30T12:06:39.808Z,30.66
2023-04-30T12:08:12.971Z,30.57
2023-04-30T12:09:48.816Z,30.09
2023-04-30T12:11:10.403Z,30.26
2023-04-30T12:12:32.242Z,30.59
2023-04-30T12:14:22.532Z,29.32
2023-04-30T12:15:44.560Z,29.73
2023-04-30T12:17:06.236Z,30.19
2023-04-30T12:18:27.975Z,28.62
2023-04-30T12:19:52.214Z,28.70
2023-04-30T12:21:15.720Z,29.18
2023-04-30T12:22:45.171Z,28.84
2023-04-30T12:24:07.248Z,28.73
2023-04-30T12:25:31.238Z,29.08
2023-04-30T12:26:53.271Z,29.13
2023-04-30T12:28:17.195Z,29.55
2023-04-30T12:29:50.931Z,29.08
2023-04-30T12:31:20.338Z,30.08
2023-04-30T12:32:43.062Z,29.64
2023-04-30T12:34:04.696Z,29.36
2023-04-30T12:35:28.396Z,29.56
2023-04-30T12:36:50.140Z,28.75
2023-04-30T12:38:23.562Z,28.72
2023-04-30T12:39:48.534Z,29.15
2023-04-30T12:41:19.225Z,29.47
2023-04-30T12:42:55.631Z,28.86
2023-04-30T12:44:16.953Z,28.98
2023-04-30T12:45:40.976Z,29.12
2023-04-30T12:47:14.563Z,28.97
2023-04-30T12:48:44.055Z,28.40
2023-04-30T12:50:07.732Z,28.91
2023-04-30T12:51:30.127Z,29.02
2023-04-30T12:53:13.537Z,30.16
2023-04-30T12:54:38.076Z,29.05
2023-04-30T12:56:08.099Z,27.59
2023-04-30T12:57:32.126Z,27.53
2023-04-30T12:58:56.998Z,27.50
2023-04-30T13:00:18.595Z,27.75
2023-04-30T13:01:41.003Z,27.48
2023-04-30T13:03:02.904Z,27.15
2023-04-30T13:04:35.478Z,25.72
2023-04-30T13:06:13.972Z,24.88
2023-04-30T13:07:49.907Z,25.01
2023-04-30T13:09:13.409Z,25.15
2023-04-30T13:10:54.876Z,26.09
2023-04-30T13:12:16.717Z,26.10
2023-04-30T13:13:40.896Z,26.19
2023-04-30T13:15:14.058Z,26.20
2023-04-30T13:16:38.029Z,26.20
2023-04-30T13:18:12.152Z,26.09
2023-04-30T13:19:36.258Z,25.59
2023-04-30T13:21:00.904Z,25.26
2023-04-30T13:22:34.555Z,25.94
2023-04-30T13:24:03.871Z,26.13
2023-04-30T13:25:39.802Z,26.44
2023-04-30T13:27:04.174Z,25.68
2023-04-30T13:28:28.311Z,26.36
2023-04-30T13:29:54.988Z,26.32
2023-04-30T13:31:19.289Z,25.93
2023-04-30T13:32:48.747Z,25.83
2023-04-30T13:34:25.016Z,26.05
2023-04-30T13:35:47.736Z,26.18
2023-04-30T13:37:09.340Z,25.46
2023-04-30T13:38:33.208Z,25.06
2023-04-30T13:40:03.666Z,25.41
2023-04-30T13:41:32.232Z,25.20
2023-04-30T13:43:03.566Z,24.75
2023-04-30T13:44:36.805Z,25.35
2023-04-30T13:45:58.949Z,25.16
2023-04-30T13:47:21.406Z,25.32
2023-04-30T13:48:55.005Z,24.53
2023-04-30T13:50:18.597Z,25.09
2023-04-30T13:51:40.841Z,24.86
2023-04-30T13:53:02.425Z,24.89
2023-04-30T13:54:38.240Z,25.53
2023-04-30T13:56:00.310Z,24.77
2023-04-30T13:57:21.864Z,24.58
2023-04-30T13:58:46.611Z,25.18
2023-04-30T14:00:13.351Z,24.92
2023-04-30T14:01:35.246Z,24.54
2023-04-30T14:02:57.353Z,24.99
2023-04-30T14:04:38.185Z,23.87
2023-04-30T14:06:00.006Z,23.72
2023-04-30T14:07:33.584Z,23.23
2023-04-30T14:08:55.608Z,22.83
2023-04-30T14:10:16.961Z,22.33
2023-04-30T14:11:51.170Z,22.75
2023-04-30T14:13:31.879Z,23.20
2023-04-30T14:14:56.485Z,22.31
2023-04-30T14:16:37.532Z,22.42
2023-04-30T14:18:22.476Z,23.07
2023-04-30T14:19:49.483Z,22.45
2023-04-30T14:21:11.576Z,22.48
2023-04-30T14:22:46.376Z,22.92
2023-04-30T14:24:08.658Z,22.52
2023-04-30T14:25:54.068Z,22.36
2023-04-30T14:27:15.596Z,22.97
2023-04-30T14:28:37.767Z,22.55
2023-04-30T14:29:59.433Z,22.43
2023-04-30T14:31:28.725Z,23.19
2023-04-30T14:33:04.375Z,23.89
2023-04-30T14:34:28.030Z,23.04
2023-04-30T14:36:04.299Z,21.67
2023-04-30T14:37:27.809Z,22.12
2023-04-30T14:38:49.743Z,21.97
2023-04-30T14:40:11.405Z,21.94
2023-04-30T14:41:33.268Z,21.75
2023-04-30T14:42:57.349Z,21.65
2023-04-30T14:44:30.774Z,21.56
2023-04-30T14:45:53.290Z,21.07
2023-04-30T14:47:17.301Z,21.02
2023-04-30T14:48:44.130Z,21.43
2023-04-30T14:50:13.263Z,22.12
2023-04-30T14:51:42.655Z,21.86
2023-04-30T14:53:16.101Z,21.83
2023-04-30T14:54:38.129Z,22.30
2023-04-30T14:55:59.842Z,22.37
2023-04-30T14:57:23.468Z,22.31
2023-04-30T14:58:48.152Z,22.21
2023-04-30T15:00:19.092Z,22.20
2023-04-30T15:01:43.130Z,21.79
2023-04-30T15:03:04.699Z,21.73
2023-04-30T15:04:33.981Z,22.12
2023-04-30T15:05:55.999Z,21.54
2023-04-30T15:07:29.220Z,22.25
2023-04-30T15:08:53.389Z,22.33
2023-04-30T15:10:14.747Z,22.13
2023-04-30T15:11:38.577Z,21.81
2023-04-30T15:13:02.599Z,21.81
2023-04-30T15:14:31.958Z,21.92
2023-04-30T15:16:05.681Z,21.52
2023-04-30T15:17:30.231Z,21.31
2023-04-30T15:18:52.338Z,21.44
2023-04-30T15:20:13.704Z,22.29
2023-04-30T15:21:35.595Z,21.65
2023-04-30T15:23:00.113Z,21.89
2023-04-30T15:24:26.189Z,21.94
2023-04-30T15:25:50.882Z,21.74
2023-04-30T15:27:24.160Z,21.78
2023-04-30T15:28:48.441Z,21.39
2023-04-30T15:30:10.337Z,21.33
2023-04-30T15:31:32.909Z,21.57
2023-04-30T15:32:54.948Z,21.42
2023-04-30T15:34:16.545Z,21.21
2023-04-30T15:35:38.649Z,20.86
2023-04-30T15:37:00.385Z,20.89
2023-04-30T15:38:31.621Z,21.12
2023-04-30T15:39:53.587Z,21.53
2023-04-30T15:41:22.896Z,22.06
2023-04-30T15:42:45.058Z,22.37
2023-04-30T15:44:09.254Z,22.26
2023-04-30T15:45:43.168Z,21.84
2023-04-30T15:47:04.837Z,21.76
2023-04-30T15:48:26.555Z,21.93
2023-04-30T15:49:57.990Z,21.95
2023-04-30T15:51:19.566Z,22.20
2023-04-30T15:52:43.688Z,22.44
2023-04-30T15:54:07.355Z,23.14
2023-04-30T15:55:29.368Z,22.95
2023-04-30T15:56:51.720Z,22.67
2023-04-30T15:58:13.212Z,22.77
2023-04-30T15:59:34.793Z,23.13
2023-04-30T16:00:59.014Z,23.58
2023-04-30T16:02:23.238Z,23.01
2023-04-30T16:03:45.206Z,23.32
2023-04-30T16:05:07.156Z,23.56
2023-04-30T16:06:29.848Z,24.05
2023-04-30T16:07:52.048Z,24.08
2023-04-30T16:09:13.512Z,24.34
2023-04-30T16:10:49.158Z,24.88
2023-04-30T16:12:11.054Z,25.17
2023-04-30T16:13:40.323Z,25.15
2023-04-30T16:15:04.619Z,24.85
2023-04-30T16:16:27.874Z,25.21
2023-04-30T16:17:52.793Z,24.67
2023-04-30T16:19:21.448Z,24.82
2023-04-30T16:20:43.382Z,25.06
2023-04-30T16:22:12.308Z,25.18
2023-04-30T16:23:36.369Z,25.16
2023-04-30T16:25:10.109Z,25.17
2023-04-30T16:26:43.849Z,25.13
2023-04-30T16:28:08.166Z,25.81
2023-04-30T16:29:41.946Z,27.03
2023-04-30T16:31:06.107Z,27.41
2023-04-30T16:32:50.647Z,28.20
2023-04-30T16:34:19.823Z,28.09
2023-04-30T16:35:51.751Z,28.49
2023-04-30T16:37:13.773Z,29.57
2023-04-30T16:38:35.537Z,29.99
2023-04-30T16:39:57.692Z,30.99
2023-04-30T16:41:21.623Z,31.33
2023-04-30T16:42:44.014Z,31.89
2023-04-30T16:44:13.222Z,32.08
2023-04-30T16:45:37.484Z,32.58
2023-04-30T16:47:02.638Z,32.50
2023-04-30T16:48:24.162Z,32.51
2023-04-30T16:49:48.500Z,32.85
2023-04-30T16:51:12.310Z,33.07
2023-04-30T16:52:34.170Z,33.63
2023-04-30T16:53:56.136Z,34.22
2023-04-30T16:55:27.428Z,34.83
2023-04-30T16:56:49.426Z,34.83
2023-04-30T16:58:11.179Z,34.84
2023-04-30T16:59:32.904Z,35.14
2023-04-30T17:01:01.950Z,35.27
2023-04-30T17:02:26.010Z,35.55
2023-04-30T17:03:50.748Z,35.28
2023-04-30T17:05:12.568Z,35.70
2023-04-30T17:06:41.702Z,35.63
2023-04-30T17:08:06.067Z,35.72
2023-04-30T17:09:30.350Z,35.97
2023-04-30T17:10:56.734Z,36.21
2023-04-30T17:12:18.606Z,36.66
2023-04-30T17:13:54.720Z,36.85
2023-04-30T17:15:19.080Z,36.66
2023-04-30T17:16:43.802Z,36.55
2023-04-30T17:18:15.205Z,36.38
2023-04-30T17:19:36.978Z,36.80
2023-04-30T17:20:58.426Z,36.76
2023-04-30T17:22:22.056Z,36.62
2023-04-30T17:23:44.128Z,36.67
2023-04-30T17:25:06.061Z,36.87
2023-04-30T17:26:27.540Z,37.36
2023-04-30T17:27:56.720Z,37.26
2023-04-30T17:29:19.707Z,37.49
2023-04-30T17:30:44.594Z,37.89
2023-04-30T17:32:11.029Z,38.04
2023-04-30T17:33:34.737Z,37.94
2023-04-30T17:34:57.798Z,37.98
2023-04-30T17:36:31.441Z,37.94
2023-04-30T17:37:53.639Z,38.49
2023-04-30T17:39:15.108Z,38.85
2023-04-30T17:40:39.736Z,39.41
2023-04-30T17:42:01.505Z,39.08
2023-04-30T17:43:23.002Z,39.35
2023-04-30T17:44:44.931Z,39.55
2023-04-30T17:46:06.837Z,39.36
2023-04-30T17:47:32.303Z,39.93
2023-04-30T17:48:54.095Z,40.16
2023-04-30T17:50:15.858Z,40.43
2023-04-30T17:51:37.653Z,40.47
2023-04-30T17:52:59.817Z,40.28
2023-04-30T17:54:21.241Z,40.70
2023-04-30T17:55:43.510Z,41.06
2023-04-30T17:57:12.473Z,41.27
2023-04-30T17:58:49.599Z,41.33
2023-04-30T18:00:10.968Z,41.70
2023-04-30T18:01:37.586Z,41.90
2023-04-30T18:02:59.411Z,41.66
2023-04-30T18:04:21.169Z,41.69
2023-04-30T18:05:43.097Z,42.29
2023-04-30T18:07:05.154Z,42.18
2023-04-30T18:08:28.624Z,42.34
2023-04-30T18:09:52.543Z,42.41
2023-04-30T18:11:16.703Z,42.92
2023-04-30T18:12:41.238Z,42.58
2023-04-30T18:14:04.702Z,43.39
2023-04-30T18:15:27.644Z,43.43
2023-04-30T18:16:56.963Z,43.59
2023-04-30T18:18:18.560Z,43.73
2023-04-30T18:19:44.319Z,43.77
2023-04-30T18:21:08.589Z,43.55
2023-04-30T18:22:30.589Z,44.08
2023-04-30T18:23:52.794Z,44.05
2023-04-30T18:25:14.351Z,44.19
2023-04-30T18:26:36.896Z,44.62
2023-04-30T18:27:59.654Z,44.96
2023-04-30T18:29:23.672Z,44.33
2023-04-30T18:30:45.451Z,44.05
2023-04-30T18:32:07.137Z,44.41
2023-04-30T18:33:31.783Z,44.47
2023-04-30T18:34:53.851Z,44.28
2023-04-30T18:36:28.170Z,44.47
2023-04-30T18:37:50.232Z,44.89
2023-04-30T18:39:12.385Z,45.33
2023-04-30T18:40:34.502Z,45.04
2023-04-30T18:41:56.643Z,44.81
2023-04-30T18:43:25.664Z,45.08
2023-04-30T18:45:02.805Z,45.09
2023-04-30T18:46:24.879Z,45.25
2023-04-30T18:47:54.824Z,45.70
2023-04-30T18:49:21.230Z,45.57